sensor_id;sensor_type;location;lat;lon;timestamp;pressure;altitude;pressure_sealevel;temperature;humidity
59789;BME280;47353;51.614;5.530;2023-06-14T00:00:10;101305.31;;;18.96;43.52
59789;BME280;47353;51.614;5.530;2023-06-14T00:02:38;101308.47;;;18.94;43.95
59789;BME280;47353;51.614;5.530;2023-06-14T00:05:05;101319.31;;;18.87;43.50
59789;BME280;47353;51.614;5.530;2023-06-14T00:07:40;101313.50;;;18.84;44.07
59789;BME280;47353;51.614;5.530;2023-06-14T00:10:12;101316.97;;;18.81;43.43
59789;BME280;47353;51.614;5.530;2023-06-14T00:12:38;101313.16;;;18.77;42.92
59789;BME280;47353;51.614;5.530;2023-06-14T00:15:04;101314.91;;;18.73;43.23
59789;BME280;47353;51.614;5.530;2023-06-14T00:17:30;101312.25;;;18.68;43.20
59789;BME280;47353;51.614;5.530;2023-06-14T00:19:59;101317.28;;;18.79;41.99
59789;BME280;47353;51.614;5.530;2023-06-14T00:22:25;101322.66;;;18.67;41.67
59789;BME280;47353;51.614;5.530;2023-06-14T00:24:51;101327.53;;;18.62;42.01
59789;BME280;47353;51.614;5.530;2023-06-14T00:27:17;101326.66;;;18.53;42.17
59789;BME280;47353;51.614;5.530;2023-06-14T00:29:42;101328.97;;;18.51;43.11
59789;BME280;47353;51.614;5.530;2023-06-14T00:32:07;101326.06;;;18.42;42.17
59789;BME280;47353;51.614;5.530;2023-06-14T00:34:33;101323.34;;;18.37;42.73
59789;BME280;47353;51.614;5.530;2023-06-14T00:36:59;101331.28;;;18.35;42.17
59789;BME280;47353;51.614;5.530;2023-06-14T00:39:24;101330.75;;;18.33;41.59
59789;BME280;47353;51.614;5.530;2023-06-14T00:41:50;101328.06;;;18.28;41.60
59789;BME280;47353;51.614;5.530;2023-06-14T00:44:16;101329.75;;;18.29;42.04
59789;BME280;47353;51.614;5.530;2023-06-14T00:46:42;101328.00;;;18.19;42.31
59789;BME280;47353;51.614;5.530;2023-06-14T00:49:08;101333.59;;;18.19;41.78
59789;BME280;47353;51.614;5.530;2023-06-14T00:51:34;101325.31;;;18.14;41.61
59789;BME280;47353;51.614;5.530;2023-06-14T00:53:59;101335.69;;;18.14;41.06
59789;BME280;47353;51.614;5.530;2023-06-14T00:56:26;101329.91;;;18.10;41.66
59789;BME280;47353;51.614;5.530;2023-06-14T00:58:52;101333.13;;;18.04;41.92
59789;BME280;47353;51.614;5.530;2023-06-14T01:01:18;101333.44;;;18.02;41.75
59789;BME280;47353;51.614;5.530;2023-06-14T01:03:44;101331.06;;;17.96;42.11
59789;BME280;47353;51.614;5.530;2023-06-14T01:12:15;101327.13;;;17.83;41.79
59789;BME280;47353;51.614;5.530;2023-06-14T01:14:48;101332.53;;;17.80;42.25
59789;BME280;47353;51.614;5.530;2023-06-14T01:17:14;101325.81;;;17.67;42.79
59789;BME280;47353;51.614;5.530;2023-06-14T01:19:45;101330.47;;;17.72;42.36
59789;BME280;47353;51.614;5.530;2023-06-14T01:22:11;101338.34;;;17.70;42.55
59789;BME280;47353;51.614;5.530;2023-06-14T01:24:36;101337.84;;;17.68;42.44
59789;BME280;47353;51.614;5.530;2023-06-14T01:27:05;101334.94;;;17.59;42.65
59789;BME280;47353;51.614;5.530;2023-06-14T01:29:32;101341.03;;;17.61;43.46
59789;BME280;47353;51.614;5.530;2023-06-14T01:31:59;101331.41;;;17.54;42.84
59789;BME280;47353;51.614;5.530;2023-06-14T01:34:25;101335.03;;;17.54;42.85
59789;BME280;47353;51.614;5.530;2023-06-14T01:36:52;101326.53;;;17.46;42.94
59789;BME280;47353;51.614;5.530;2023-06-14T01:39:19;101340.53;;;17.46;43.35
59789;BME280;47353;51.614;5.530;2023-06-14T01:41:46;101340.84;;;17.44;43.43
59789;BME280;47353;51.614;5.530;2023-06-14T01:44:13;101337.59;;;17.37;44.12
59789;BME280;47353;51.614;5.530;2023-06-14T01:46:41;101339.88;;;17.35;44.35
59789;BME280;47353;51.614;5.530;2023-06-14T01:49:07;101338.31;;;17.29;43.96
59789;BME280;47353;51.614;5.530;2023-06-14T01:51:32;101340.78;;;17.31;44.17
59789;BME280;47353;51.614;5.530;2023-06-14T01:53:58;101330.75;;;17.30;43.81
59789;BME280;47353;51.614;5.530;2023-06-14T01:56:23;101337.59;;;17.24;44.49
59789;BME280;47353;51.614;5.530;2023-06-14T01:58:48;101342.34;;;17.23;43.78
59789;BME280;47353;51.614;5.530;2023-06-14T02:01:15;101337.69;;;17.19;43.92
59789;BME280;47353;51.614;5.530;2023-06-14T02:03:41;101340.78;;;17.17;45.01
59789;BME280;47353;51.614;5.530;2023-06-14T02:06:07;101337.16;;;17.17;45.11
59789;BME280;47353;51.614;5.530;2023-06-14T02:08:33;101344.50;;;17.13;45.00
59789;BME280;47353;51.614;5.530;2023-06-14T02:10:58;101339.53;;;17.10;44.65
59789;BME280;47353;51.614;5.530;2023-06-14T02:13:23;101332.78;;;17.11;44.63
59789;BME280;47353;51.614;5.530;2023-06-14T02:15:49;101326.56;;;17.00;44.99
59789;BME280;47353;51.614;5.530;2023-06-14T02:18:20;101336.91;;;17.00;45.10
59789;BME280;47353;51.614;5.530;2023-06-14T02:20:45;101335.66;;;16.92;45.94
59789;BME280;47353;51.614;5.530;2023-06-14T02:23:10;101336.81;;;16.91;45.33
59789;BME280;47353;51.614;5.530;2023-06-14T02:25:36;101334.09;;;16.86;45.35
59789;BME280;47353;51.614;5.530;2023-06-14T02:28:01;101336.97;;;16.81;46.31
59789;BME280;47353;51.614;5.530;2023-06-14T02:30:27;101337.28;;;16.80;45.72
59789;BME280;47353;51.614;5.530;2023-06-14T02:32:52;101333.22;;;16.72;47.00
59789;BME280;47353;51.614;5.530;2023-06-14T02:35:18;101336.63;;;16.69;46.60
59789;BME280;47353;51.614;5.530;2023-06-14T02:37:45;101341.41;;;16.69;46.14
59789;BME280;47353;51.614;5.530;2023-06-14T02:40:11;101341.47;;;16.63;46.66
59789;BME280;47353;51.614;5.530;2023-06-14T02:42:37;101339.59;;;16.59;47.95
59789;BME280;47353;51.614;5.530;2023-06-14T02:45:03;101345.88;;;16.51;47.90
59789;BME280;47353;51.614;5.530;2023-06-14T02:47:29;101346.25;;;16.44;47.46
59789;BME280;47353;51.614;5.530;2023-06-14T02:49:55;101355.75;;;16.43;48.24
59789;BME280;47353;51.614;5.530;2023-06-14T02:52:20;101355.75;;;16.43;47.68
59789;BME280;47353;51.614;5.530;2023-06-14T02:54:47;101354.97;;;16.38;48.37
59789;BME280;47353;51.614;5.530;2023-06-14T02:57:12;101351.75;;;16.31;48.20
59789;BME280;47353;51.614;5.530;2023-06-14T02:59:38;101349.25;;;16.29;48.49
59789;BME280;47353;51.614;5.530;2023-06-14T03:02:03;101357.03;;;16.32;49.04
59789;BME280;47353;51.614;5.530;2023-06-14T03:04:29;101351.53;;;16.27;49.81
59789;BME280;47353;51.614;5.530;2023-06-14T03:06:54;101351.03;;;16.25;49.45
59789;BME280;47353;51.614;5.530;2023-06-14T03:09:20;101355.47;;;16.26;49.28
59789;BME280;47353;51.614;5.530;2023-06-14T03:11:46;101360.81;;;16.23;49.50
59789;BME280;47353;51.614;5.530;2023-06-14T03:14:11;101360.56;;;16.19;49.52
59789;BME280;47353;51.614;5.530;2023-06-14T03:16:38;101357.03;;;16.14;50.49
59789;BME280;47353;51.614;5.530;2023-06-14T03:19:03;101360.66;;;16.14;50.25
59789;BME280;47353;51.614;5.530;2023-06-14T03:21:29;101360.44;;;16.11;50.51
59789;BME280;47353;51.614;5.530;2023-06-14T03:23:55;101364.13;;;16.06;51.20
59789;BME280;47353;51.614;5.530;2023-06-14T03:26:20;101361.09;;;16.03;51.47
59789;BME280;47353;51.614;5.530;2023-06-14T03:28:46;101367.59;;;15.98;51.01
59789;BME280;47353;51.614;5.530;2023-06-14T03:31:13;101365.09;;;15.97;51.29
59789;BME280;47353;51.614;5.530;2023-06-14T03:33:39;101358.53;;;15.88;51.81
59789;BME280;47353;51.614;5.530;2023-06-14T03:36:05;101372.44;;;15.93;52.41
59789;BME280;47353;51.614;5.530;2023-06-14T03:38:32;101378.91;;;15.88;52.00
59789;BME280;47353;51.614;5.530;2023-06-14T03:40:57;101372.47;;;15.88;52.67
59789;BME280;47353;51.614;5.530;2023-06-14T03:43:23;101366.97;;;15.83;53.28
59789;BME280;47353;51.614;5.530;2023-06-14T03:45:48;101373.97;;;15.80;53.13
59789;BME280;47353;51.614;5.530;2023-06-14T03:48:14;101376.53;;;15.77;53.12
59789;BME280;47353;51.614;5.530;2023-06-14T03:50:40;101383.56;;;15.74;53.79
59789;BME280;47353;51.614;5.530;2023-06-14T03:53:06;101384.59;;;15.78;53.58
59789;BME280;47353;51.614;5.530;2023-06-14T03:55:31;101385.44;;;15.79;53.62
59789;BME280;47353;51.614;5.530;2023-06-14T03:57:58;101382.13;;;15.77;53.82
59789;BME280;47353;51.614;5.530;2023-06-14T04:00:24;101383.75;;;15.78;53.72
59789;BME280;47353;51.614;5.530;2023-06-14T04:02:49;101381.56;;;15.75;54.38
59789;BME280;47353;51.614;5.530;2023-06-14T04:05:15;101385.69;;;15.82;52.82
59789;BME280;47353;51.614;5.530;2023-06-14T04:07:42;101379.03;;;15.78;54.20
59789;BME280;47353;51.614;5.530;2023-06-14T04:10:13;101390.44;;;15.82;54.07
59789;BME280;47353;51.614;5.530;2023-06-14T04:12:38;101388.25;;;15.79;53.64
59789;BME280;47353;51.614;5.530;2023-06-14T04:15:05;101397.97;;;15.81;53.95
59789;BME280;47353;51.614;5.530;2023-06-14T04:17:37;101396.25;;;15.85;53.59
59789;BME280;47353;51.614;5.530;2023-06-14T04:20:02;101393.97;;;15.87;53.29
59789;BME280;47353;51.614;5.530;2023-06-14T04:22:30;101383.72;;;15.83;54.33
59789;BME280;47353;51.614;5.530;2023-06-14T04:24:56;101398.97;;;15.90;53.63
59789;BME280;47353;51.614;5.530;2023-06-14T04:27:23;101395.28;;;15.95;53.04
59789;BME280;47353;51.614;5.530;2023-06-14T04:29:50;101390.53;;;15.95;52.70
59789;BME280;47353;51.614;5.530;2023-06-14T04:32:18;101401.09;;;15.98;53.50
59789;BME280;47353;51.614;5.530;2023-06-14T04:34:43;101406.31;;;16.05;53.24
59789;BME280;47353;51.614;5.530;2023-06-14T04:37:09;101412.75;;;16.05;53.30
59789;BME280;47353;51.614;5.530;2023-06-14T04:39:34;101412.97;;;16.09;54.07
59789;BME280;47353;51.614;5.530;2023-06-14T04:42:00;101411.25;;;16.13;52.77
59789;BME280;47353;51.614;5.530;2023-06-14T04:44:25;101414.84;;;16.13;53.60
59789;BME280;47353;51.614;5.530;2023-06-14T04:46:58;101413.19;;;16.12;54.43
59789;BME280;47353;51.614;5.530;2023-06-14T04:49:24;101410.94;;;16.14;56.21
59789;BME280;47353;51.614;5.530;2023-06-14T04:51:49;101413.34;;;16.21;53.21
59789;BME280;47353;51.614;5.530;2023-06-14T04:54:23;101420.84;;;16.25;53.23
59789;BME280;47353;51.614;5.530;2023-06-14T04:56:51;101422.19;;;16.28;52.82
59789;BME280;47353;51.614;5.530;2023-06-14T04:59:16;101421.00;;;16.34;51.72
59789;BME280;47353;51.614;5.530;2023-06-14T05:01:42;101415.94;;;16.36;52.82
59789;BME280;47353;51.614;5.530;2023-06-14T05:04:12;101423.94;;;16.42;52.34
59789;BME280;47353;51.614;5.530;2023-06-14T05:06:38;101424.19;;;16.46;52.81
59789;BME280;47353;51.614;5.530;2023-06-14T05:09:03;101421.63;;;16.49;52.20
59789;BME280;47353;51.614;5.530;2023-06-14T05:11:29;101429.97;;;16.54;52.22
59789;BME280;47353;51.614;5.530;2023-06-14T05:13:54;101422.06;;;16.56;52.16
59789;BME280;47353;51.614;5.530;2023-06-14T05:16:19;101424.72;;;16.67;51.45
59789;BME280;47353;51.614;5.530;2023-06-14T05:18:48;101431.06;;;16.72;51.50
59789;BME280;47353;51.614;5.530;2023-06-14T05:21:13;101431.53;;;16.79;50.99
59789;BME280;47353;51.614;5.530;2023-06-14T05:23:42;101425.03;;;16.84;49.95
59789;BME280;47353;51.614;5.530;2023-06-14T05:26:09;101432.72;;;16.92;50.48
59789;BME280;47353;51.614;5.530;2023-06-14T05:28:35;101436.25;;;16.97;50.19
59789;BME280;47353;51.614;5.530;2023-06-14T05:31:00;101440.00;;;17.06;50.45
59789;BME280;47353;51.614;5.530;2023-06-14T05:33:26;101441.09;;;17.10;50.54
59789;BME280;47353;51.614;5.530;2023-06-14T05:35:51;101445.13;;;17.18;49.83
59789;BME280;47353;51.614;5.530;2023-06-14T05:38:17;101434.69;;;17.23;49.36
59789;BME280;47353;51.614;5.530;2023-06-14T05:40:42;101425.97;;;17.25;49.44
59789;BME280;47353;51.614;5.530;2023-06-14T05:43:07;101446.97;;;17.41;50.47
59789;BME280;47353;51.614;5.530;2023-06-14T05:45:33;101447.94;;;17.50;49.39
59789;BME280;47353;51.614;5.530;2023-06-14T05:47:58;101448.34;;;17.57;49.42
59789;BME280;47353;51.614;5.530;2023-06-14T05:50:24;101453.78;;;17.67;49.94
59789;BME280;47353;51.614;5.530;2023-06-14T05:52:49;101464.16;;;17.80;49.21
59789;BME280;47353;51.614;5.530;2023-06-14T05:55:16;101468.72;;;17.89;49.09
59789;BME280;47353;51.614;5.530;2023-06-14T05:57:42;101461.16;;;18.03;48.52
59789;BME280;47353;51.614;5.530;2023-06-14T06:00:08;101467.06;;;18.15;48.13
59789;BME280;47353;51.614;5.530;2023-06-14T06:02:40;101470.69;;;18.29;48.51
59789;BME280;47353;51.614;5.530;2023-06-14T06:05:06;101463.44;;;18.42;47.51
59789;BME280;47353;51.614;5.530;2023-06-14T06:07:31;101472.13;;;18.54;47.71
59789;BME280;47353;51.614;5.530;2023-06-14T06:09:57;101467.25;;;18.60;46.79
59789;BME280;47353;51.614;5.530;2023-06-14T06:12:22;101468.38;;;18.72;47.88
59789;BME280;47353;51.614;5.530;2023-06-14T06:14:48;101475.66;;;18.95;46.87
59789;BME280;47353;51.614;5.530;2023-06-14T06:17:13;101466.78;;;19.02;46.58
59789;BME280;47353;51.614;5.530;2023-06-14T06:19:38;101466.44;;;19.17;46.36
59789;BME280;47353;51.614;5.530;2023-06-14T06:22:04;101476.13;;;19.33;46.63
59789;BME280;47353;51.614;5.530;2023-06-14T06:24:31;101483.34;;;19.47;45.02
59789;BME280;47353;51.614;5.530;2023-06-14T06:26:57;101484.53;;;19.55;44.73
59789;BME280;47353;51.614;5.530;2023-06-14T06:29:22;101488.56;;;19.62;44.48
59789;BME280;47353;51.614;5.530;2023-06-14T06:31:48;101483.47;;;19.73;43.90
59789;BME280;47353;51.614;5.530;2023-06-14T06:34:13;101487.69;;;19.84;43.76
59789;BME280;47353;51.614;5.530;2023-06-14T06:36:39;101486.06;;;19.92;43.51
59789;BME280;47353;51.614;5.530;2023-06-14T06:39:04;101498.34;;;20.04;43.43
59789;BME280;47353;51.614;5.530;2023-06-14T06:41:37;101501.28;;;20.30;43.16
59789;BME280;47353;51.614;5.530;2023-06-14T06:44:05;101501.00;;;20.40;43.01
59789;BME280;47353;51.614;5.530;2023-06-14T06:46:31;101497.88;;;20.67;43.05
59789;BME280;47353;51.614;5.530;2023-06-14T06:48:56;101504.22;;;20.72;42.23
59789;BME280;47353;51.614;5.530;2023-06-14T06:51:22;101506.03;;;20.77;41.52
59789;BME280;47353;51.614;5.530;2023-06-14T06:53:52;101513.31;;;20.95;41.10
59789;BME280;47353;51.614;5.530;2023-06-14T06:56:18;101512.72;;;21.15;40.87
59789;BME280;47353;51.614;5.530;2023-06-14T06:58:44;101513.88;;;21.14;40.92
59789;BME280;47353;51.614;5.530;2023-06-14T07:01:09;101507.41;;;21.30;41.39
59789;BME280;47353;51.614;5.530;2023-06-14T07:03:35;101505.41;;;21.39;40.10
59789;BME280;47353;51.614;5.530;2023-06-14T07:06:00;101517.94;;;21.68;40.58
59789;BME280;47353;51.614;5.530;2023-06-14T07:08:26;101520.59;;;21.73;39.82
59789;BME280;47353;51.614;5.530;2023-06-14T07:10:52;101531.88;;;21.81;39.33
59789;BME280;47353;51.614;5.530;2023-06-14T07:13:17;101525.03;;;21.99;39.20
59789;BME280;47353;51.614;5.530;2023-06-14T07:15:43;101523.28;;;22.24;39.15
59789;BME280;47353;51.614;5.530;2023-06-14T07:18:08;101531.59;;;22.49;39.71
59789;BME280;47353;51.614;5.530;2023-06-14T07:20:34;101531.72;;;22.61;37.85
59789;BME280;47353;51.614;5.530;2023-06-14T07:22:59;101535.63;;;22.77;37.58
59789;BME280;47353;51.614;5.530;2023-06-14T07:25:25;101535.09;;;22.84;36.77
59789;BME280;47353;51.614;5.530;2023-06-14T07:27:51;101534.41;;;22.87;36.21
59789;BME280;47353;51.614;5.530;2023-06-14T07:30:16;101541.63;;;22.96;36.84
59789;BME280;47353;51.614;5.530;2023-06-14T07:32:42;101544.66;;;23.12;36.90
59789;BME280;47353;51.614;5.530;2023-06-14T07:35:08;101552.13;;;23.37;36.75
59789;BME280;47353;51.614;5.530;2023-06-14T07:37:33;101550.41;;;23.45;35.12
59789;BME280;47353;51.614;5.530;2023-06-14T07:39:59;101541.53;;;23.55;35.57
59789;BME280;47353;51.614;5.530;2023-06-14T07:42:24;101525.94;;;23.49;35.68
59789;BME280;47353;51.614;5.530;2023-06-14T07:44:50;101550.41;;;23.98;34.76
59789;BME280;47353;51.614;5.530;2023-06-14T07:47:17;101546.47;;;24.35;35.93
59789;BME280;47353;51.614;5.530;2023-06-14T07:49:42;101554.59;;;24.36;33.43
59789;BME280;47353;51.614;5.530;2023-06-14T07:52:08;101559.53;;;24.27;33.16
59789;BME280;47353;51.614;5.530;2023-06-14T07:54:33;101560.25;;;24.48;33.34
59789;BME280;47353;51.614;5.530;2023-06-14T07:56:59;101566.16;;;24.43;32.79
59789;BME280;47353;51.614;5.530;2023-06-14T07:59:26;101561.69;;;24.79;33.12
59789;BME280;47353;51.614;5.530;2023-06-14T08:01:51;101562.16;;;24.93;32.50
59789;BME280;47353;51.614;5.530;2023-06-14T08:04:17;101575.63;;;24.84;32.23
59789;BME280;47353;51.614;5.530;2023-06-14T08:06:42;101570.44;;;24.86;31.76
59789;BME280;47353;51.614;5.530;2023-06-14T08:09:11;101573.28;;;24.86;31.80
59789;BME280;47353;51.614;5.530;2023-06-14T08:11:37;101577.75;;;24.75;31.44
59789;BME280;47353;51.614;5.530;2023-06-14T08:14:03;101575.63;;;24.84;31.50
59789;BME280;47353;51.614;5.530;2023-06-14T08:16:28;101578.22;;;25.01;31.47
59789;BME280;47353;51.614;5.530;2023-06-14T08:18:55;101570.13;;;25.39;31.60
59789;BME280;47353;51.614;5.530;2023-06-14T08:21:20;101567.88;;;25.72;31.04
59789;BME280;47353;51.614;5.530;2023-06-14T08:23:46;101564.97;;;25.56;30.06
59789;BME280;47353;51.614;5.530;2023-06-14T08:26:11;101573.03;;;26.09;30.91
59789;BME280;47353;51.614;5.530;2023-06-14T08:28:36;101571.66;;;26.19;29.95
59789;BME280;47353;51.614;5.530;2023-06-14T08:31:02;101574.50;;;26.19;29.69
59789;BME280;47353;51.614;5.530;2023-06-14T08:33:27;101566.00;;;26.35;29.46
59789;BME280;47353;51.614;5.530;2023-06-14T08:35:53;101561.41;;;26.61;30.52
59789;BME280;47353;51.614;5.530;2023-06-14T08:38:18;101570.19;;;27.03;29.53
59789;BME280;47353;51.614;5.530;2023-06-14T08:40:45;101577.41;;;27.16;28.75
59789;BME280;47353;51.614;5.530;2023-06-14T08:43:13;101564.63;;;26.75;27.79
59789;BME280;47353;51.614;5.530;2023-06-14T08:45:39;101570.03;;;27.15;27.63
59789;BME280;47353;51.614;5.530;2023-06-14T08:48:06;101565.72;;;27.21;27.84
59789;BME280;47353;51.614;5.530;2023-06-14T08:50:33;101572.84;;;27.65;27.64
59789;BME280;47353;51.614;5.530;2023-06-14T08:53:01;101565.03;;;28.00;27.89
59789;BME280;47353;51.614;5.530;2023-06-14T08:55:29;101575.41;;;28.12;26.09
59789;BME280;47353;51.614;5.530;2023-06-14T08:57:56;101574.91;;;28.06;25.01
59789;BME280;47353;51.614;5.530;2023-06-14T09:00:26;101575.28;;;28.05;23.94
59789;BME280;47353;51.614;5.530;2023-06-14T09:02:52;101571.00;;;28.14;23.79
59789;BME280;47353;51.614;5.530;2023-06-14T09:05:26;101568.06;;;28.52;23.91
59789;BME280;47353;51.614;5.530;2023-06-14T09:07:52;101575.25;;;28.69;23.00
59789;BME280;47353;51.614;5.530;2023-06-14T09:10:20;101573.41;;;28.80;22.09
59789;BME280;47353;51.614;5.530;2023-06-14T09:12:46;101573.13;;;29.41;22.61
59789;BME280;47353;51.614;5.530;2023-06-14T09:15:12;101568.53;;;29.92;21.81
59789;BME280;47353;51.614;5.530;2023-06-14T09:17:39;101578.88;;;30.07;21.05
59789;BME280;47353;51.614;5.530;2023-06-14T09:20:06;101578.56;;;30.15;20.06
59789;BME280;47353;51.614;5.530;2023-06-14T09:22:35;101579.44;;;30.19;20.36
59789;BME280;47353;51.614;5.530;2023-06-14T09:25:01;101574.44;;;30.46;20.09
59789;BME280;47353;51.614;5.530;2023-06-14T09:27:27;101576.84;;;30.84;20.01
59789;BME280;47353;51.614;5.530;2023-06-14T09:29:53;101570.22;;;31.34;20.61
59789;BME280;47353;51.614;5.530;2023-06-14T09:32:19;101580.44;;;32.24;19.86
59789;BME280;47353;51.614;5.530;2023-06-14T09:34:46;101576.00;;;32.41;19.77
59789;BME280;47353;51.614;5.530;2023-06-14T09:37:11;101576.84;;;32.94;19.95
59789;BME280;47353;51.614;5.530;2023-06-14T09:39:52;101583.31;;;33.51;18.99
59789;BME280;47353;51.614;5.530;2023-06-14T09:42:18;101584.97;;;33.41;17.75
59789;BME280;47353;51.614;5.530;2023-06-14T09:44:48;101582.28;;;34.00;17.62
59789;BME280;47353;51.614;5.530;2023-06-14T09:47:18;101585.41;;;34.33;16.81
59789;BME280;47353;51.614;5.530;2023-06-14T09:49:43;101592.38;;;34.90;16.96
59789;BME280;47353;51.614;5.530;2023-06-14T09:52:19;101596.22;;;35.17;16.36
59789;BME280;47353;51.614;5.530;2023-06-14T09:54:46;101583.72;;;35.34;16.48
59789;BME280;47353;51.614;5.530;2023-06-14T09:57:13;101592.03;;;36.26;16.83
59789;BME280;47353;51.614;5.530;2023-06-14T09:59:46;101599.31;;;36.38;15.94
59789;BME280;47353;51.614;5.530;2023-06-14T10:02:20;101584.41;;;35.83;14.88
59789;BME280;47353;51.614;5.530;2023-06-14T10:04:52;101580.16;;;36.21;15.51
59789;BME280;47353;51.614;5.530;2023-06-14T10:07:19;101588.84;;;36.47;15.55
59789;BME280;47353;51.614;5.530;2023-06-14T10:09:47;101591.84;;;36.40;14.91
59789;BME280;47353;51.614;5.530;2023-06-14T10:12:17;101576.53;;;36.43;16.27
59789;BME280;47353;51.614;5.530;2023-06-14T10:14:50;101573.72;;;37.13;15.00
59789;BME280;47353;51.614;5.530;2023-06-14T10:17:24;101575.34;;;37.56;14.75
59789;BME280;47353;51.614;5.530;2023-06-14T10:20:03;101554.38;;;37.10;15.27
59789;BME280;47353;51.614;5.530;2023-06-14T10:22:42;101571.56;;;37.40;15.42
59789;BME280;47353;51.614;5.530;2023-06-14T10:25:26;101572.78;;;37.62;15.10
59789;BME280;47353;51.614;5.530;2023-06-14T10:27:52;101571.72;;;37.91;14.55
59789;BME280;47353;51.614;5.530;2023-06-14T10:30:25;101560.47;;;37.77;14.59
59789;BME280;47353;51.614;5.530;2023-06-14T10:33:06;101565.28;;;38.03;14.55
59789;BME280;47353;51.614;5.530;2023-06-14T10:35:32;101565.97;;;37.72;14.94
59789;BME280;47353;51.614;5.530;2023-06-14T10:38:12;101563.78;;;37.37;15.16
59789;BME280;47353;51.614;5.530;2023-06-14T10:40:38;101566.47;;;37.05;14.17
59789;BME280;47353;51.614;5.530;2023-06-14T10:43:23;101566.59;;;36.71;14.93
59789;BME280;47353;51.614;5.530;2023-06-14T10:46:17;101568.88;;;36.03;15.48
59789;BME280;47353;51.614;5.530;2023-06-14T10:48:44;101571.00;;;34.91;15.71
59789;BME280;47353;51.614;5.530;2023-06-14T10:51:17;101550.59;;;34.14;17.39
59789;BME280;47353;51.614;5.530;2023-06-14T10:53:49;101560.97;;;34.01;17.50
59789;BME280;47353;51.614;5.530;2023-06-14T10:56:35;101563.00;;;34.00;18.15
59789;BME280;47353;51.614;5.530;2023-06-14T10:59:00;101555.91;;;34.19;17.49
59789;BME280;47353;51.614;5.530;2023-06-14T11:04:17;101576.53;;;34.07;17.30
59789;BME280;47353;51.614;5.530;2023-06-14T11:06:49;101554.56;;;33.58;17.55
59789;BME280;47353;51.614;5.530;2023-06-14T11:09:29;101571.09;;;33.05;18.79
59789;BME280;47353;51.614;5.530;2023-06-14T11:12:03;101578.06;;;32.86;17.73
59789;BME280;47353;51.614;5.530;2023-06-14T11:14:32;101567.78;;;33.17;18.11
59789;BME280;47353;51.614;5.530;2023-06-14T11:16:57;101562.78;;;33.52;18.63
59789;BME280;47353;51.614;5.530;2023-06-14T11:19:23;101549.00;;;32.91;18.92
59789;BME280;47353;51.614;5.530;2023-06-14T11:21:49;101562.91;;;32.96;18.97
59789;BME280;47353;51.614;5.530;2023-06-14T11:24:16;101565.78;;;32.79;18.64
59789;BME280;47353;51.614;5.530;2023-06-14T11:26:42;101562.06;;;32.50;18.60
59789;BME280;47353;51.614;5.530;2023-06-14T11:29:08;101557.09;;;32.33;19.52
59789;BME280;47353;51.614;5.530;2023-06-14T11:31:33;101551.44;;;32.61;19.10
59789;BME280;47353;51.614;5.530;2023-06-14T11:33:59;101552.63;;;32.39;19.33
59789;BME280;47353;51.614;5.530;2023-06-14T11:36:29;101540.72;;;33.25;20.79
59789;BME280;47353;51.614;5.530;2023-06-14T11:38:59;101546.00;;;33.33;18.81
59789;BME280;47353;51.614;5.530;2023-06-14T11:41:25;101541.03;;;33.55;19.52
59789;BME280;47353;51.614;5.530;2023-06-14T11:43:54;101550.47;;;33.52;19.68
59789;BME280;47353;51.614;5.530;2023-06-14T11:46:19;101542.44;;;32.94;19.68
59789;BME280;47353;51.614;5.530;2023-06-14T11:48:49;101540.69;;;33.32;19.76
59789;BME280;47353;51.614;5.530;2023-06-14T11:51:14;101542.72;;;33.35;19.55
59789;BME280;47353;51.614;5.530;2023-06-14T11:53:42;101545.63;;;33.21;20.09
59789;BME280;47353;51.614;5.530;2023-06-14T11:56:08;101550.56;;;33.13;19.78
59789;BME280;47353;51.614;5.530;2023-06-14T11:58:33;101546.50;;;33.14;19.58
59789;BME280;47353;51.614;5.530;2023-06-14T12:00:59;101544.47;;;32.97;19.44
59789;BME280;47353;51.614;5.530;2023-06-14T12:03:25;101545.69;;;32.79;18.86
59789;BME280;47353;51.614;5.530;2023-06-14T12:06:05;101553.88;;;32.80;20.16
59789;BME280;47353;51.614;5.530;2023-06-14T12:08:38;101549.78;;;32.92;20.37
59789;BME280;47353;51.614;5.530;2023-06-14T12:11:06;101541.97;;;32.29;19.62
59789;BME280;47353;51.614;5.530;2023-06-14T12:13:31;101544.34;;;31.99;20.40
59789;BME280;47353;51.614;5.530;2023-06-14T12:15:57;101543.28;;;31.39;20.68
59789;BME280;47353;51.614;5.530;2023-06-14T12:18:35;101544.88;;;31.33;21.07
59789;BME280;47353;51.614;5.530;2023-06-14T12:21:01;101543.03;;;31.79;20.52
59789;BME280;47353;51.614;5.530;2023-06-14T12:23:39;101538.66;;;32.06;20.92
59789;BME280;47353;51.614;5.530;2023-06-14T12:26:05;101544.00;;;32.32;20.63
59789;BME280;47353;51.614;5.530;2023-06-14T12:28:31;101548.56;;;32.61;18.97
59789;BME280;47353;51.614;5.530;2023-06-14T12:30:57;101545.25;;;32.31;18.08
59789;BME280;47353;51.614;5.530;2023-06-14T12:33:24;101524.41;;;32.45;19.80
59789;BME280;47353;51.614;5.530;2023-06-14T12:35:50;101544.44;;;32.80;19.37
59789;BME280;47353;51.614;5.530;2023-06-14T12:38:15;101539.13;;;32.50;18.27
59789;BME280;47353;51.614;5.530;2023-06-14T12:40:41;101553.06;;;32.55;18.62
59789;BME280;47353;51.614;5.530;2023-06-14T12:43:07;101550.97;;;32.27;18.80
59789;BME280;47353;51.614;5.530;2023-06-14T12:45:33;101550.94;;;32.13;18.33
59789;BME280;47353;51.614;5.530;2023-06-14T12:47:58;101553.41;;;32.18;19.24
59789;BME280;47353;51.614;5.530;2023-06-14T12:50:24;101564.06;;;32.18;19.38
59789;BME280;47353;51.614;5.530;2023-06-14T12:52:49;101553.84;;;32.27;18.35
59789;BME280;47353;51.614;5.530;2023-06-14T12:55:15;101557.53;;;32.35;19.56
59789;BME280;47353;51.614;5.530;2023-06-14T12:57:40;101555.06;;;32.26;20.12